sensor_id;sensor_type;location;lat;lon;timestamp;pressure;altitude;pressure_sealevel;temperature;humidity
20115;BME280;10218;42.874;25.320;2023-02-19T00:01:47;97224.09;;;8.18;100.00
20115;BME280;10218;42.874;25.320;2023-02-19T00:04:17;97221.88;;;7.53;100.00
20115;BME280;10218;42.874;25.320;2023-02-19T00:06:46;97218.22;;;7.89;100.00
20115;BME280;10218;42.874;25.320;2023-02-19T00:09:15;97214.31;;;6.95;100.00
20115;BME280;10218;42.874;25.320;2023-02-19T00:11:44;97207.38;;;6.84;100.00
20115;BME280;10218;42.874;25.320;2023-02-19T00:14:33;97208.62;;;6.53;100.00
20115;BME280;10218;42.874;25.320;2023-02-19T00:17:27;97213.09;;;6.53;100.00
20115;BME280;10218;42.874;25.320;2023-02-19T00:19:55;97227.78;;;6.47;100.00
20115;BME280;10218;42.874;25.320;2023-02-19T00:22:23;97210.44;;;6.53;100.00
20115;BME280;10218;42.874;25.320;2023-02-19T00:24:50;97219.31;;;6.34;100.00
20115;BME280;10218;42.874;25.320;2023-02-19T00:27:17;97222.03;;;6.52;100.00
20115;BME280;10218;42.874;25.320;2023-02-19T00:29:45;97226.94;;;6.47;100.00
20115;BME280;10218;42.874;25.320;2023-02-19T00:32:14;97236.94;;;6.16;100.00
20115;BME280;10218;42.874;25.320;2023-02-19T00:34:41;97227.06;;;6.08;100.00
20115;BME280;10218;42.874;25.320;2023-02-19T00:37:08;97228.84;;;6.17;100.00
20115;BME280;10218;42.874;25.320;2023-02-19T00:39:36;97230.97;;;5.75;100.00
20115;BME280;10218;42.874;25.320;2023-02-19T00:42:05;97221.50;;;5.92;100.00
20115;BME280;10218;42.874;25.320;2023-02-19T00:44:32;97221.63;;;5.90;100.00
20115;BME280;10218;42.874;25.320;2023-02-19T00:47:00;97222.47;;;5.62;100.00
20115;BME280;10218;42.874;25.320;2023-02-19T00:49:27;97210.50;;;5.58;100.00
20115;BME280;10218;42.874;25.320;2023-02-19T00:51:54;97228.31;;;5.66;100.00
20115;BME280;10218;42.874;25.320;2023-02-19T00:54:32;97220.50;;;6.03;100.00
20115;BME280;10218;42.874;25.320;2023-02-19T00:57:38;97222.72;;;6.07;100.00
20115;BME280;10218;42.874;25.320;2023-02-19T01:00:05;97213.22;;;6.05;100.00
20115;BME280;10218;42.874;25.320;2023-02-19T01:02:33;97224.41;;;6.08;100.00
20115;BME280;10218;42.874;25.320;2023-02-19T01:05:00;97223.03;;;6.04;100.00
20115;BME280;10218;42.874;25.320;2023-02-19T01:07:27;97215.19;;;6.12;100.00
20115;BME280;10218;42.874;25.320;2023-02-19T01:09:56;97204.22;;;5.88;100.00
20115;BME280;10218;42.874;25.320;2023-02-19T01:12:26;97201.13;;;5.83;100.00
20115;BME280;10218;42.874;25.320;2023-02-19T01:14:55;97198.91;;;5.78;100.00
20115;BME280;10218;42.874;25.320;2023-02-19T01:17:22;97196.25;;;5.88;100.00
20115;BME280;10218;42.874;25.320;2023-02-19T01:19:51;97203.47;;;6.05;100.00
20115;BME280;10218;42.874;25.320;2023-02-19T01:22:18;97200.84;;;6.42;100.00
20115;BME280;10218;42.874;25.320;2023-02-19T01:24:45;97205.03;;;6.44;100.00
20115;BME280;10218;42.874;25.320;2023-02-19T01:27:13;97205.63;;;6.66;100.00
20115;BME280;10218;42.874;25.320;2023-02-19T01:29:41;97200.97;;;6.40;100.00
20115;BME280;10218;42.874;25.320;2023-02-19T01:32:08;97199.59;;;6.36;100.00
20115;BME280;10218;42.874;25.320;2023-02-19T01:34:50;97192.59;;;6.08;100.00
20115;BME280;10218;42.874;25.320;2023-02-19T01:37:44;97211.00;;;6.00;100.00
20115;BME280;10218;42.874;25.320;2023-02-19T01:40:11;97211.00;;;6.19;100.00
20115;BME280;10218;42.874;25.320;2023-02-19T01:42:42;97213.41;;;5.93;100.00
20115;BME280;10218;42.874;25.320;2023-02-19T01:45:31;97216.34;;;5.62;100.00
20115;BME280;10218;42.874;25.320;2023-02-19T01:48:14;97210.59;;;5.85;100.00
20115;BME280;10218;42.874;25.320;2023-02-19T01:50:53;97214.62;;;5.80;100.00
20115;BME280;10218;42.874;25.320;2023-02-19T01:53:25;97215.22;;;5.74;100.00
20115;BME280;10218;42.874;25.320;2023-02-19T01:55:57;97213.81;;;5.31;100.00
20115;BME280;10218;42.874;25.320;2023-02-19T01:58:30;97214.09;;;5.67;100.00
20115;BME280;10218;42.874;25.320;2023-02-19T02:01:05;97212.31;;;5.57;100.00
20115;BME280;10218;42.874;25.320;2023-02-19T02:03:39;97209.34;;;5.60;100.00
20115;BME280;10218;42.874;25.320;2023-02-19T02:06:26;97216.47;;;5.41;100.00
20115;BME280;10218;42.874;25.320;2023-02-19T02:08:58;97222.06;;;5.57;100.00
20115;BME280;10218;42.874;25.320;2023-02-19T02:11:50;97223.56;;;5.31;100.00
20115;BME280;10218;42.874;25.320;2023-02-19T02:14:24;97236.69;;;5.51;100.00
20115;BME280;10218;42.874;25.320;2023-02-19T02:22:03;97246.59;;;5.40;100.00
20115;BME280;10218;42.874;25.320;2023-02-19T02:28:03;97249.87;;;5.13;100.00
20115;BME280;10218;42.874;25.320;2023-02-19T02:30:28;97263.88;;;4.85;100.00
20115;BME280;10218;42.874;25.320;2023-02-19T02:36:17;97270.84;;;5.35;100.00
20115;BME280;10218;42.874;25.320;2023-02-19T02:38:49;97277.06;;;5.15;100.00
20115;BME280;10218;42.874;25.320;2023-02-19T02:41:20;97281.53;;;5.14;100.00
20115;BME280;10218;42.874;25.320;2023-02-19T02:43:53;97279.91;;;5.23;100.00
20115;BME280;10218;42.874;25.320;2023-02-19T02:46:28;97284.44;;;5.02;100.00
20115;BME280;10218;42.874;25.320;2023-02-19T02:49:00;97281.13;;;4.79;100.00
20115;BME280;10218;42.874;25.320;2023-02-19T02:51:38;97288.72;;;4.93;100.00
20115;BME280;10218;42.874;25.320;2023-02-19T02:54:21;97293.72;;;4.87;100.00
20115;BME280;10218;42.874;25.320;2023-02-19T02:57:11;97294.03;;;5.03;100.00
20115;BME280;10218;42.874;25.320;2023-02-19T02:59:43;97291.47;;;5.22;100.00
20115;BME280;10218;42.874;25.320;2023-02-19T03:02:22;97297.22;;;5.46;100.00
20115;BME280;10218;42.874;25.320;2023-02-19T03:05:01;97280.78;;;5.52;100.00
20115;BME280;10218;42.874;25.320;2023-02-19T03:11:08;97286.91;;;5.43;100.00
20115;BME280;10218;42.874;25.320;2023-02-19T03:16:55;97292.22;;;5.43;100.00
20115;BME280;10218;42.874;25.320;2023-02-19T03:19:49;97293.19;;;5.52;100.00
20115;BME280;10218;42.874;25.320;2023-02-19T03:22:24;97309.06;;;5.42;100.00
20115;BME280;10218;42.874;25.320;2023-02-19T03:25:00;97315.06;;;5.44;100.00
20115;BME280;10218;42.874;25.320;2023-02-19T03:27:54;97321.16;;;5.26;100.00
20115;BME280;10218;42.874;25.320;2023-02-19T03:30:32;97304.09;;;5.09;100.00
20115;BME280;10218;42.874;25.320;2023-02-19T03:33:21;97316.38;;;5.10;100.00
20115;BME280;10218;42.874;25.320;2023-02-19T03:35:57;97303.56;;;5.15;100.00
20115;BME280;10218;42.874;25.320;2023-02-19T03:41:19;97301.41;;;4.99;100.00
20115;BME280;10218;42.874;25.320;2023-02-19T03:43:59;97292.44;;;5.21;100.00
20115;BME280;10218;42.874;25.320;2023-02-19T03:49:16;97302.63;;;5.26;100.00
20115;BME280;10218;42.874;25.320;2023-02-19T03:51:50;97297.19;;;5.27;100.00
20115;BME280;10218;42.874;25.320;2023-02-19T03:59:54;97303.03;;;5.31;100.00
20115;BME280;10218;42.874;25.320;2023-02-19T04:03:14;97306.84;;;5.47;100.00
20115;BME280;10218;42.874;25.320;2023-02-19T04:05:25;97308.91;;;5.34;100.00
20115;BME280;10218;42.874;25.320;2023-02-19T04:07:58;97316.59;;;5.37;100.00
20115;BME280;10218;42.874;25.320;2023-02-19T04:10:31;97308.34;;;4.91;100.00
20115;BME280;10218;42.874;25.320;2023-02-19T04:13:10;97322.12;;;5.34;100.00
20115;BME280;10218;42.874;25.320;2023-02-19T04:15:41;97309.56;;;5.17;100.00
20115;BME280;10218;42.874;25.320;2023-02-19T04:18:21;97302.63;;;5.35;100.00
20115;BME280;10218;42.874;25.320;2023-02-19T04:20:50;97311.44;;;5.45;100.00
20115;BME280;10218;42.874;25.320;2023-02-19T04:23:22;97301.97;;;5.52;100.00
20115;BME280;10218;42.874;25.320;2023-02-19T04:25:56;97300.59;;;5.58;100.00
20115;BME280;10218;42.874;25.320;2023-02-19T04:28:27;97296.13;;;5.68;100.00
20115;BME280;10218;42.874;25.320;2023-02-19T04:30:55;97297.09;;;5.57;100.00
20115;BME280;10218;42.874;25.320;2023-02-19T04:33:22;97295.44;;;5.76;100.00
20115;BME280;10218;42.874;25.320;2023-02-19T04:35:49;97298.34;;;5.53;100.00
20115;BME280;10218;42.874;25.320;2023-02-19T04:38:18;97300.28;;;5.51;100.00
20115;BME280;10218;42.874;25.320;2023-02-19T04:40:45;97302.53;;;5.46;100.00
20115;BME280;10218;42.874;25.320;2023-02-19T04:43:14;97290.97;;;5.67;100.00
20115;BME280;10218;42.874;25.320;2023-02-19T04:45:43;97292.59;;;5.39;100.00
20115;BME280;10218;42.874;25.320;2023-02-19T04:48:10;97281.47;;;5.54;100.00
20115;BME280;10218;42.874;25.320;2023-02-19T04:50:38;97286.38;;;5.69;100.00
20115;BME280;10218;42.874;25.320;2023-02-19T04:53:06;97290.25;;;5.74;100.00
20115;BME280;10218;42.874;25.320;2023-02-19T04:55:37;97299.22;;;5.64;100.00
20115;BME280;10218;42.874;25.320;2023-02-19T04:58:05;97288.19;;;5.68;100.00
20115;BME280;10218;42.874;25.320;2023-02-19T05:00:33;97300.19;;;5.82;100.00
20115;BME280;10218;42.874;25.320;2023-02-19T05:03:01;97305.59;;;5.61;100.00
20115;BME280;10218;42.874;25.320;2023-02-19T05:05:28;97302.69;;;5.74;100.00
20115;BME280;10218;42.874;25.320;2023-02-19T05:07:55;97308.56;;;5.68;100.00
20115;BME280;10218;42.874;25.320;2023-02-19T05:10:23;97308.44;;;5.79;100.00
20115;BME280;10218;42.874;25.320;2023-02-19T05:12:49;97307.84;;;5.85;100.00
20115;BME280;10218;42.874;25.320;2023-02-19T05:15:18;97310.41;;;5.96;100.00
20115;BME280;10218;42.874;25.320;2023-02-19T05:17:45;97313.62;;;6.09;100.00
20115;BME280;10218;42.874;25.320;2023-02-19T05:20:13;97317.59;;;5.84;100.00
20115;BME280;10218;42.874;25.320;2023-02-19T05:22:41;97311.09;;;5.98;100.00
20115;BME280;10218;42.874;25.320;2023-02-19T05:25:08;97320.72;;;5.89;100.00
20115;BME280;10218;42.874;25.320;2023-02-19T05:27:35;97322.81;;;6.24;100.00
20115;BME280;10218;42.874;25.320;2023-02-19T05:30:04;97329.78;;;6.16;100.00
20115;BME280;10218;42.874;25.320;2023-02-19T05:32:34;97329.06;;;6.42;100.00
20115;BME280;10218;42.874;25.320;2023-02-19T05:35:01;97334.66;;;6.39;100.00
20115;BME280;10218;42.874;25.320;2023-02-19T05:37:31;97337.47;;;6.28;100.00
20115;BME280;10218;42.874;25.320;2023-02-19T05:39:58;97351.16;;;6.14;100.00
20115;BME280;10218;42.874;25.320;2023-02-19T05:42:26;97350.31;;;6.33;100.00
20115;BME280;10218;42.874;25.320;2023-02-19T05:44:53;97365.66;;;6.20;100.00
20115;BME280;10218;42.874;25.320;2023-02-19T05:47:20;97386.75;;;6.02;100.00
20115;BME280;10218;42.874;25.320;2023-02-19T05:49:47;97392.34;;;6.18;100.00
20115;BME280;10218;42.874;25.320;2023-02-19T05:52:14;97389.94;;;6.25;100.00
20115;BME280;10218;42.874;25.320;2023-02-19T05:54:41;97389.13;;;6.24;100.00
20115;BME280;10218;42.874;25.320;2023-02-19T05:57:10;97388.97;;;6.16;100.00
20115;BME280;10218;42.874;25.320;2023-02-19T05:59:37;97386.31;;;6.35;100.00
20115;BME280;10218;42.874;25.320;2023-02-19T06:02:04;97386.87;;;6.49;100.00
20115;BME280;10218;42.874;25.320;2023-02-19T06:04:31;97401.69;;;6.41;100.00
20115;BME280;10218;42.874;25.320;2023-02-19T06:06:59;97375.16;;;6.41;100.00
20115;BME280;10218;42.874;25.320;2023-02-19T06:09:29;97380.47;;;6.41;100.00
20115;BME280;10218;42.874;25.320;2023-02-19T06:11:58;97391.63;;;6.26;100.00
20115;BME280;10218;42.874;25.320;2023-02-19T06:14:25;97393.03;;;6.20;100.00
20115;BME280;10218;42.874;25.320;2023-02-19T06:16:54;97398.34;;;6.49;100.00
20115;BME280;10218;42.874;25.320;2023-02-19T06:19:22;97403.34;;;6.52;100.00
20115;BME280;10218;42.874;25.320;2023-02-19T06:21:50;97402.37;;;6.53;100.00
20115;BME280;10218;42.874;25.320;2023-02-19T06:24:18;97408.97;;;6.39;100.00
20115;BME280;10218;42.874;25.320;2023-02-19T06:26:47;97403.09;;;6.26;100.00
20115;BME280;10218;42.874;25.320;2023-02-19T06:29:15;97413.12;;;6.52;100.00
20115;BME280;10218;42.874;25.320;2023-02-19T06:31:43;97393.87;;;6.50;100.00
20115;BME280;10218;42.874;25.320;2023-02-19T06:34:11;97395.25;;;6.54;100.00
20115;BME280;10218;42.874;25.320;2023-02-19T06:36:38;97407.06;;;6.88;100.00
20115;BME280;10218;42.874;25.320;2023-02-19T06:39:06;97412.13;;;6.81;100.00
20115;BME280;10218;42.874;25.320;2023-02-19T06:41:33;97414.81;;;7.18;100.00
20115;BME280;10218;42.874;25.320;2023-02-19T06:44:00;97405.44;;;7.24;100.00
20115;BME280;10218;42.874;25.320;2023-02-19T06:46:27;97408.63;;;7.64;100.00
20115;BME280;10218;42.874;25.320;2023-02-19T06:48:55;97397.38;;;8.15;100.00
20115;BME280;10218;42.874;25.320;2023-02-19T06:51:22;97416.38;;;8.21;100.00
20115;BME280;10218;42.874;25.320;2023-02-19T06:53:53;97416.47;;;8.64;100.00
20115;BME280;10218;42.874;25.320;2023-02-19T06:56:25;97419.06;;;8.74;100.00
20115;BME280;10218;42.874;25.320;2023-02-19T06:58:56;97411.53;;;8.69;100.00
20115;BME280;10218;42.874;25.320;2023-02-19T07:01:29;97417.50;;;9.15;100.00
20115;BME280;10218;42.874;25.320;2023-02-19T07:03:56;97409.69;;;8.87;100.00
20115;BME280;10218;42.874;25.320;2023-02-19T07:06:25;97408.91;;;9.21;100.00
20115;BME280;10218;42.874;25.320;2023-02-19T07:08:54;97404.06;;;9.50;100.00
20115;BME280;10218;42.874;25.320;2023-02-19T07:11:22;97400.44;;;9.59;100.00
20115;BME280;10218;42.874;25.320;2023-02-19T07:13:56;97402.16;;;9.76;100.00
20115;BME280;10218;42.874;25.320;2023-02-19T07:16:25;97391.09;;;10.05;100.00
20115;BME280;10218;42.874;25.320;2023-02-19T07:18:56;97401.28;;;9.60;100.00
20115;BME280;10218;42.874;25.320;2023-02-19T07:21:25;97384.59;;;10.00;100.00
20115;BME280;10218;42.874;25.320;2023-02-19T07:23:52;97382.22;;;9.88;100.00
20115;BME280;10218;42.874;25.320;2023-02-19T07:26:20;97379.97;;;10.26;100.00
20115;BME280;10218;42.874;25.320;2023-02-19T07:28:49;97389.34;;;10.62;100.00
20115;BME280;10218;42.874;25.320;2023-02-19T07:31:19;97384.66;;;10.89;100.00
20115;BME280;10218;42.874;25.320;2023-02-19T07:33:46;97385.50;;;10.57;100.00
20115;BME280;10218;42.874;25.320;2023-02-19T07:36:15;97388.50;;;11.10;95.72
20115;BME280;10218;42.874;25.320;2023-02-19T07:38:44;97380.44;;;11.74;96.84
20115;BME280;10218;42.874;25.320;2023-02-19T07:41:11;97382.00;;;11.99;84.17
20115;BME280;10218;42.874;25.320;2023-02-19T07:43:40;97381.69;;;12.70;77.11
20115;BME280;10218;42.874;25.320;2023-02-19T07:46:10;97388.41;;;13.26;68.01
20115;BME280;10218;42.874;25.320;2023-02-19T07:48:39;97368.56;;;13.50;64.79
20115;BME280;10218;42.874;25.320;2023-02-19T07:51:11;97391.28;;;13.98;64.40
20115;BME280;10218;42.874;25.320;2023-02-19T07:53:38;97393.19;;;15.25;52.64
20115;BME280;10218;42.874;25.320;2023-02-19T07:56:06;97385.63;;;16.04;50.15
20115;BME280;10218;42.874;25.320;2023-02-19T07:58:35;97381.19;;;16.51;48.08
20115;BME280;10218;42.874;25.320;2023-02-19T08:01:06;97386.25;;;16.87;47.54
20115;BME280;10218;42.874;25.320;2023-02-19T08:03:37;97389.19;;;17.18;45.64
20115;BME280;10218;42.874;25.320;2023-02-19T08:06:05;97382.13;;;16.97;45.72
20115;BME280;10218;42.874;25.320;2023-02-19T08:08:32;97383.75;;;17.44;43.98
20115;BME280;10218;42.874;25.320;2023-02-19T08:11:02;97388.91;;;17.92;43.20
20115;BME280;10218;42.874;25.320;2023-02-19T08:13:50;97395.00;;;18.25;42.22
20115;BME280;10218;42.874;25.320;2023-02-19T08:16:19;97386.06;;;19.26;40.07
20115;BME280;10218;42.874;25.320;2023-02-19T08:18:59;97400.84;;;18.67;40.05
20115;BME280;10218;42.874;25.320;2023-02-19T08:21:27;97383.34;;;19.01;40.14
20115;BME280;10218;42.874;25.320;2023-02-19T08:23:55;97378.22;;;18.04;40.22
20115;BME280;10218;42.874;25.320;2023-02-19T08:26:22;97388.91;;;18.81;39.56
20115;BME280;10218;42.874;25.320;2023-02-19T08:28:49;97392.13;;;18.65;40.21
20115;BME280;10218;42.874;25.320;2023-02-19T08:31:16;97398.50;;;18.77;38.97
20115;BME280;10218;42.874;25.320;2023-02-19T08:33:45;97390.59;;;18.37;40.08
20115;BME280;10218;42.874;25.320;2023-02-19T08:36:12;97389.16;;;18.73;39.06
20115;BME280;10218;42.874;25.320;2023-02-19T08:38:40;97401.41;;;17.80;40.54
20115;BME280;10218;42.874;25.320;2023-02-19T08:41:11;97399.19;;;18.66;38.79
20115;BME280;10218;42.874;25.320;2023-02-19T08:43:40;97396.97;;;18.88;38.86
20115;BME280;10218;42.874;25.320;2023-02-19T08:46:08;97406.28;;;18.67;39.34
20115;BME280;10218;42.874;25.320;2023-02-19T08:48:36;97400.75;;;18.80;38.98
20115;BME280;10218;42.874;25.320;2023-02-19T08:51:07;97403.22;;;17.99;40.15
20115;BME280;10218;42.874;25.320;2023-02-19T08:53:37;97394.66;;;19.41;38.49
20115;BME280;10218;42.874;25.320;2023-02-19T08:56:07;97390.12;;;17.96;40.06
20115;BME280;10218;42.874;25.320;2023-02-19T08:58:35;97384.28;;;18.88;39.16
20115;BME280;10218;42.874;25.320;2023-02-19T09:01:09;97373.28;;;19.08;38.90
20115;BME280;10218;42.874;25.320;2023-02-19T09:03:39;97374.31;;;20.66;37.16
20115;BME280;10218;42.874;25.320;2023-02-19T09:06:06;97371.06;;;21.40;35.46
20115;BME280;10218;42.874;25.320;2023-02-19T09:08:33;97363.50;;;21.54;35.01
20115;BME280;10218;42.874;25.320;2023-02-19T09:11:02;97361.34;;;22.42;34.26
20115;BME280;10218;42.874;25.320;2023-02-19T09:13:30;97357.59;;;22.72;33.59
20115;BME280;10218;42.874;25.320;2023-02-19T09:15:58;97357.19;;;20.65;34.79
20115;BME280;10218;42.874;25.320;2023-02-19T09:18:27;97369.84;;;20.71;35.15
20115;BME280;10218;42.874;25.320;2023-02-19T09:20:59;97352.69;;;22.05;33.90
20115;BME280;10218;42.874;25.320;2023-02-19T09:23:32;97341.47;;;22.02;33.95
20115;BME280;10218;42.874;25.320;2023-02-19T09:25:59;97330.31;;;23.17;32.90
20115;BME280;10218;42.874;25.320;2023-02-19T09:28:29;97333.75;;;24.44;30.87
20115;BME280;10218;42.874;25.320;2023-02-19T09:30:56;97324.28;;;23.48;32.07
20115;BME280;10218;42.874;25.320;2023-02-19T09:33:23;97312.13;;;24.16;31.19
20115;BME280;10218;42.874;25.320;2023-02-19T09:35:50;97316.91;;;24.79;30.67
20115;BME280;10218;42.874;25.320;2023-02-19T09:38:17;97316.44;;;24.34;31.22
20115;BME280;10218;42.874;25.320;2023-02-19T09:40:44;97322.94;;;24.27;30.93
20115;BME280;10218;42.874;25.320;2023-02-19T09:43:17;97320.84;;;23.74;31.86
20115;BME280;10218;42.874;25.320;2023-02-19T09:45:46;97303.09;;;22.15;32.67
20115;BME280;10218;42.874;25.320;2023-02-19T09:48:14;97309.63;;;24.14;31.21
20115;BME280;10218;42.874;25.320;2023-02-19T09:50:46;97316.41;;;23.68;31.08
20115;BME280;10218;42.874;25.320;2023-02-19T09:53:22;97318.50;;;22.66;32.08
20115;BME280;10218;42.874;25.320;2023-02-19T09:55:51;97313.72;;;22.85;32.52
20115;BME280;10218;42.874;25.320;2023-02-19T09:58:29;97305.66;;;21.82;33.50
20115;BME280;10218;42.874;25.320;2023-02-19T10:01:01;97302.41;;;24.25;31.11
20115;BME280;10218;42.874;25.320;2023-02-19T10:03:36;97302.78;;;24.12;30.52
20115;BME280;10218;42.874;25.320;2023-02-19T10:06:13;97295.22;;;23.20;31.55
20115;BME280;10218;42.874;25.320;2023-02-19T10:08:46;97302.97;;;23.62;31.05
20115;BME280;10218;42.874;25.320;2023-02-19T10:11:14;97307.12;;;23.14;31.26
20115;BME280;10218;42.874;25.320;2023-02-19T10:13:45;97291.06;;;23.18;31.80
20115;BME280;10218;42.874;25.320;2023-02-19T10:16:20;97296.69;;;22.78;31.99
20115;BME280;10218;42.874;25.320;2023-02-19T10:18:50;97289.09;;;23.13;31.37
20115;BME280;10218;42.874;25.320;2023-02-19T10:21:23;97282.31;;;23.49;31.28
20115;BME280;10218;42.874;25.320;2023-02-19T10:23:54;97291.75;;;22.75;31.97
20115;BME280;10218;42.874;25.320;2023-02-19T10:26:23;97258.28;;;23.46;31.43
20115;BME280;10218;42.874;25.320;2023-02-19T10:28:51;97291.41;;;23.55;31.03
20115;BME280;10218;42.874;25.320;2023-02-19T10:31:23;97290.56;;;24.63;29.99
20115;BME280;10218;42.874;25.320;2023-02-19T10:36:30;97277.09;;;24.56;29.83
20115;BME280;10218;42.874;25.320;2023-02-19T10:39:01;97267.41;;;25.86;29.04
20115;BME280;10218;42.874;25.320;2023-02-19T10:41:29;97279.34;;;25.65;29.21
20115;BME280;10218;42.874;25.320;2023-02-19T10:46:28;97261.28;;;24.10;30.73
20115;BME280;10218;42.874;25.320;2023-02-19T10:49:00;97269.41;;;23.83;31.05
20115;BME280;10218;42.874;25.320;2023-02-19T10:51:37;97264.94;;;23.99;30.95
20115;BME280;10218;42.874;25.320;2023-02-19T10:54:15;97254.81;;;23.94;31.50
20115;BME280;10218;42.874;25.320;2023-02-19T10:56:43;97254.41;;;21.62;33.70
20115;BME280;10218;42.874;25.320;2023-02-19T11:01:59;97248.87;;;22.25;33.38
20115;BME280;10218;42.874;25.320;2023-02-19T11:04:30;97244.03;;;23.06;32.67
20115;BME280;10218;42.874;25.320;2023-02-19T11:07:14;97255.09;;;22.99;32.67
20115;BME280;10218;42.874;25.320;2023-02-19T11:09:44;97247.06;;;22.59;33.47
20115;BME280;10218;42.874;25.320;2023-02-19T11:12:22;97243.59;;;21.79;34.22
20115;BME280;10218;42.874;25.320;2023-02-19T11:14:52;97247.81;;;21.34;35.11
20115;BME280;10218;42.874;25.320;2023-02-19T11:17:25;97256.56;;;21.48;35.22
20115;BME280;10218;42.874;25.320;2023-02-19T11:19:59;97247.44;;;21.54;34.48
20115;BME280;10218;42.874;25.320;2023-02-19T11:22:37;97264.66;;;19.77;37.33
20115;BME280;10218;42.874;25.320;2023-02-19T11:25:16;97248.87;;;20.34;36.56
20115;BME280;10218;42.874;25.320;2023-02-19T11:28:05;97237.84;;;20.29;36.81
20115;BME280;10218;42.874;25.320;2023-02-19T11:33:31;97240.00;;;21.03;36.51
20115;BME280;10218;42.874;25.320;2023-02-19T11:38:49;97234.50;;;22.13;34.56
20115;BME280;10218;42.874;25.320;2023-02-19T11:41:40;97228.28;;;22.46;34.00
20115;BME280;10218;42.874;25.320;2023-02-19T11:44:53;97232.78;;;21.55;35.34
20115;BME280;10218;42.874;25.320;2023-02-19T11:56:18;97216.03;;;23.49;32.82
20115;BME280;10218;42.874;25.320;2023-02-19T11:59:02;97215.28;;;23.15;32.41
20115;BME280;10218;42.874;25.320;2023-02-19T12:02:17;97221.09;;;24.59;31.08
20115;BME280;10218;42.874;25.320;2023-02-19T12:14:29;97205.69;;;23.12;31.89
20115;BME280;10218;42.874;25.320;2023-02-19T12:21:54;97190.94;;;24.76;30.93
20115;BME280;10218;42.874;25.320;2023-02-19T12:27:38;97181.91;;;26.47;28.78
20115;BME280;10218;42.874;25.320;2023-02-19T12:36:09;97160.22;;;26.20;28.81
20115;BME280;10218;42.874;25.320;2023-02-19T12:44:18;97160.75;;;25.39;29.42
20115;BME280;10218;42.874;25.320;2023-02-19T12:46:57;97161.75;;;23.25;31.88
20115;BME280;10218;42.874;25.320;2023-02-19T12:50:31;97163.13;;;24.84;30.27
20115;BME280;10218;42.874;25.320;2023-02-19T12:52:36;97163.19;;;25.98;29.13
20115;BME280;10218;42.874;25.320;2023-02-19T12:55:21;97170.78;;;25.19;29.54
20115;BME280;10218;42.874;25.320;2023-02-19T12:57:51;97165.37;;;25.34;29.65
20115;BME280;10218;42.874;25.320;2023-02-19T13:03:02;97148.13;;;25.90;28.83
20115;BME280;10218;42.874;25.320;2023-02-19T13:08:06;97141.63;;;26.62;28.29
20115;BME280;10218;42.874;25.320;2023-02-19T13:11:00;97142.44;;;26.32;29.22
20115;BME280;10218;42.874;25.320;2023-02-19T13:13:39;97127.53;;;25.73;29.39
20115;BME280;10218;42.874;25.320;2023-02-19T13:16:13;97125.69;;;27.05;27.93
20115;BME280;10218;42.874;25.320;2023-02-19T13:18:49;97120.50;;;27.03;27.47
20115;BME280;10218;42.874;25.320;2023-02-19T13:21:20;97113.72;;;27.60;26.94
20115;BME280;10218;42.874;25.320;2023-02-19T13:24:19;97114.75;;;27.05;27.42
20115;BME280;10218;42.874;25.320;2023-02-19T13:27:28;97106.75;;;27.83;26.47
20115;BME280;10218;42.874;25.320;2023-02-19T13:33:18;97102.69;;;27.01;27.72
20115;BME280;10218;42.874;25.320;2023-02-19T13:36:19;97106.00;;;26.32;29.13
20115;BME280;10218;42.874;25.320;2023-02-19T13:38:49;97098.63;;;28.12;26.29
20115;BME280;10218;42.874;25.320;2023-02-19T13:41:41;97100.03;;;29.72;24.85
20115;BME280;10218;42.874;25.320;2023-02-19T13:44:22;97088.44;;;25.87;28.43
20115;BME280;10218;42.874;25.320;2023-02-19T13:46:50;97085.91;;;25.71;29.20
20115;BME280;10218;42.874;25.320;2023-02-19T13:54:30;97066.75;;;27.72;27.63
20115;BME280;10218;42.874;25.320;2023-02-19T13:59:45;97069.28;;;26.18;28.47
20115;BME280;10218;42.874;25.320;2023-02-19T14:04:56;97057.94;;;23.32;32.20
20115;BME280;10218;42.874;25.320;2023-02-19T14:09:53;97048.22;;;26.08;29.67
20115;BME280;10218;42.874;25.320;2023-02-19T14:12:21;97047.19;;;25.22;29.83
20115;BME280;10218;42.874;25.320;2023-02-19T14:14:56;97044.03;;;25.55;29.77
20115;BME280;10218;42.874;25.320;2023-02-19T14:20:40;97039.03;;;25.32;30.35
20115;BME280;10218;42.874;25.320;2023-02-19T14:23:22;97042.25;;;24.66;30.66
20115;BME280;10218;42.874;25.320;2023-02-19T14:25:55;97041.63;;;23.37;31.75
20115;BME280;10218;42.874;25.320;2023-02-19T14:28:27;97038.81;;;24.44;30.83
20115;BME280;10218;42.874;25.320;2023-02-19T14:31:06;97033.75;;;23.62;31.72
20115;BME280;10218;42.874;25.320;2023-02-19T14:33:37;97033.12;;;25.75;29.31
20115;BME280;10218;42.874;25.320;2023-02-19T14:36:15;97033.09;;;26.87;28.29
20115;BME280;10218;42.874;25.320;2023-02-19T14:38:50;97033.69;;;23.57;31.61
20115;BME280;10218;42.874;25.320;2023-02-19T14:41:19;97027.16;;;23.85;31.67
20115;BME280;10218;42.874;25.320;2023-02-19T14:43:51;97024.16;;;24.55;31.22
20115;BME280;10218;42.874;25.320;2023-02-19T14:46:46;97021.28;;;25.44;30.16
20115;BME280;10218;42.874;25.320;2023-02-19T14:49:16;97024.19;;;22.51;33.43
20115;BME280;10218;42.874;25.320;2023-02-19T14:51:52;97024.88;;;21.91;34.57
20115;BME280;10218;42.874;25.320;2023-02-19T14:54:59;97019.13;;;20.74;36.06
20115;BME280;10218;42.874;25.320;2023-02-19T14:57:42;97014.44;;;20.12;37.77
20115;BME280;10218;42.874;25.320;2023-02-19T15:00:25;97026.59;;;19.97;38.16
20115;BME280;10218;42.874;25.320;2023-02-19T15:02:54;97026.25;;;20.05;38.02
20115;BME280;10218;42.874;25.320;2023-02-19T15:07:53;97019.88;;;19.88;39.33